createdAt,value
2023-01-25T00:04:09.368Z,1036
2023-01-25T00:09:49.144Z,1035.8
2023-01-25T00:15:17.041Z,1035.8
2023-01-25T00:20:59.430Z,1035.8
2023-01-25T00:26:36.146Z,1035.9
2023-01-25T00:31:56.975Z,1035.8
2023-01-25T00:37:25.653Z,1035.9
2023-01-25T00:43:04.070Z,1035.9
2023-01-25T00:48:35.801Z,1035.9
2023-01-25T00:54:04.162Z,1035.9
2023-01-25T00:59:42.043Z,1035.9
2023-01-25T01:05:05.825Z,1035.9
2023-01-25T01:10:59.722Z,1035.8
2023-01-25T01:16:22.404Z,1035.7
2023-01-25T01:21:50.855Z,1035.8
2023-01-25T01:27:47.322Z,1035.7
2023-01-25T01:33:12.234Z,1035.6
2023-01-25T01:38:43.569Z,1035.7
2023-01-25T01:44:11.260Z,1035.6
2023-01-25T01:49:49.287Z,1035.6
2023-01-25T01:55:16.889Z,1035.5
2023-01-25T02:00:43.532Z,1035.4
2023-01-25T02:06:26.840Z,1035.3
2023-01-25T02:12:06.289Z,1035.3
2023-01-25T02:17:46.880Z,1035.1
2023-01-25T02:23:08.390Z,1035.1
2023-01-25T02:28:43.053Z,1035.3
2023-01-25T02:34:13.676Z,1035.2
2023-01-25T02:39:35.773Z,1035.3
2023-01-25T02:45:13.852Z,1035.3
2023-01-25T02:50:48.811Z,1035.3
2023-01-25T02:56:41.099Z,1035.4
2023-01-25T03:02:16.061Z,1035.5
2023-01-25T03:07:30.944Z,1035.4
2023-01-25T03:13:13.703Z,1035.3
2023-01-25T03:18:44.424Z,1035.2
2023-01-25T03:24:19.168Z,1035.2
2023-01-25T03:29:39.072Z,1035.1
2023-01-25T03:35:33.183Z,1035.1
2023-01-25T03:41:08.638Z,1035.1
2023-01-25T03:46:25.674Z,1035.2
2023-01-25T03:51:57.424Z,1035.2
2023-01-25T03:57:42.220Z,1035.1
2023-01-25T04:03:20.267Z,1035
2023-01-25T04:08:26.600Z,1034.9
2023-01-25T04:14:16.495Z,1034.9
2023-01-25T04:19:36.819Z,1035
2023-01-25T04:25:23.050Z,1034.9
2023-01-25T04:30:39.886Z,1034.9
2023-01-25T04:36:16.759Z,1034.8
2023-01-25T04:42:01.096Z,1034.8
2023-01-25T04:47:20.441Z,1034.7
2023-01-25T04:53:13.282Z,1034.8
2023-01-25T04:58:43.870Z,1034.8
2023-01-25T05:04:15.548Z,1034.6
2023-01-25T05:09:55.354Z,1034.7
2023-01-25T05:15:02.351Z,1034.6
2023-01-25T05:20:59.715Z,1034.6
2023-01-25T05:26:33.748Z,1034.7
2023-01-25T05:32:09.983Z,1034.7
2023-01-25T05:37:38.570Z,1034.8
2023-01-25T05:43:10.050Z,1034.7
2023-01-25T05:48:42.417Z,1034.7
2023-01-25T05:53:54.288Z,1034.6
2023-01-25T05:59:45.566Z,1034.6
2023-01-25T06:05:16.313Z,1034.6
2023-01-25T06:10:45.290Z,1034.6
2023-01-25T06:16:29.904Z,1034.7
2023-01-25T06:21:51.804Z,1034.8
2023-01-25T06:27:13.736Z,1034.7
2023-01-25T06:33:12.846Z,1034.7
2023-01-25T06:38:46.901Z,1034.6
2023-01-25T06:44:04.649Z,1034.5
2023-01-25T06:49:49.019Z,1034.5
2023-01-25T06:55:08.280Z,1034.5
2023-01-25T07:00:34.833Z,1034.6
2023-01-25T07:06:25.507Z,1034.6
2023-01-25T07:11:38.184Z,1034.4
2023-01-25T07:17:36.825Z,1034.5
2023-01-25T07:23:04.640Z,1034.4
2023-01-25T07:28:30.230Z,1034.3
2023-01-25T07:33:59.641Z,1034.4
2023-01-25T07:39:49.881Z,1034.4
2023-01-25T07:45:20.756Z,1034.4
2023-01-25T07:50:56.417Z,1034.4
2023-01-25T07:56:26.508Z,1034.4
2023-01-25T08:01:50.342Z,1034.3
2023-01-25T08:07:14.150Z,1034.3
2023-01-25T08:12:54.572Z,1034.3
2023-01-25T08:18:42.148Z,1034.4
2023-01-25T08:23:55.872Z,1034.3
2023-01-25T08:29:26.408Z,1034.3
2023-01-25T08:35:11.385Z,1034.3
2023-01-25T08:40:43.461Z,1034.4
2023-01-25T08:46:11.159Z,1034.2
2023-01-25T08:51:38.908Z,1034.2
2023-01-25T08:57:26.368Z,1034
2023-01-25T09:02:44.848Z,1034
2023-01-25T09:08:30.263Z,1033.9
2023-01-25T09:13:56.888Z,1033.7
2023-01-25T09:19:30.735Z,1033.8
2023-01-25T09:24:58.386Z,1033.7
2023-01-25T09:30:44.989Z,1033.8
2023-01-25T09:36:07.115Z,1033.6
2023-01-25T09:42:06.560Z,1033.5
2023-01-25T09:47:19.944Z,1033.6
2023-01-25T09:52:51.690Z,1033.5
2023-01-25T09:58:41.094Z,1033.4
2023-01-25T10:04:09.247Z,1033.5
2023-01-25T10:09:46.483Z,1033.4
2023-01-25T10:14:59.299Z,1033.2
2023-01-25T10:20:54.210Z,1033.2
2023-01-25T10:26:26.415Z,1033
2023-01-25T10:32:01.957Z,1033
2023-01-25T10:37:21.362Z,1033
2023-01-25T10:42:52.515Z,1033.1
2023-01-25T10:48:24.596Z,1033
2023-01-25T10:53:58.572Z,1033.1
2023-01-25T10:59:34.060Z,1032.9
2023-01-25T11:05:07.179Z,1032.8
2023-01-25T11:10:44.794Z,1032.7
2023-01-25T11:16:24.515Z,1032.7
2023-01-25T11:22:09.175Z,1032.5
2023-01-25T11:27:40.643Z,1032.5
2023-01-25T11:33:08.211Z,1032.3
2023-01-25T11:38:30.351Z,1032.3
2023-01-25T11:44:10.208Z,1032.2
2023-01-25T11:49:42.811Z,1032.2
2023-01-25T11:55:24.662Z,1032.1
2023-01-25T12:00:49.213Z,1032
2023-01-25T12:06:24.370Z,1031.9
2023-01-25T12:12:00.249Z,1031.9
2023-01-25T12:17:42.664Z,1031.7
2023-01-25T12:23:13.339Z,1031.6
2023-01-25T12:28:39.692Z,1031.6
2023-01-25T12:34:17.468Z,1031.5
2023-01-25T12:39:57.883Z,1031.4
2023-01-25T12:45:12.352Z,1031.5
2023-01-25T12:50:58.084Z,1031.4
2023-01-25T12:56:42.663Z,1031.3
2023-01-25T13:07:27.983Z,1031.2
2023-01-25T13:13:20.729Z,1031.1
2023-01-25T13:18:59.553Z,1031
2023-01-25T13:24:15.036Z,1031
2023-01-25T13:29:52.734Z,1030.9
2023-01-25T13:35:22.843Z,1030.9
2023-01-25T13:40:56.937Z,1030.9
2023-01-25T13:46:26.757Z,1030.8
2023-01-25T13:52:10.009Z,1030.9
2023-01-25T13:57:38.651Z,1030.8
2023-01-25T14:03:03.357Z,1030.8
2023-01-25T14:14:10.788Z,1030.8
2023-01-25T14:19:59.998Z,1030.8
2023-01-25T14:25:24.919Z,1030.7
2023-01-25T14:30:54.242Z,1030.7
2023-01-25T14:36:48.420Z,1030.6
2023-01-25T14:42:20.744Z,1030.7
2023-01-25T14:47:41.055Z,1030.7
2023-01-25T14:53:14.602Z,1030.6
2023-01-25T14:59:03.891Z,1030.7
2023-01-25T15:04:30.887Z,1030.5
2023-01-25T15:09:43.563Z,1030.6
2023-01-25T15:15:28.877Z,1030.5
2023-01-25T15:20:51.444Z,1030.4
2023-01-25T15:26:30.832Z,1030.4
2023-01-25T15:37:49.611Z,1030.1
2023-01-25T15:43:13.571Z,1030.1
2023-01-25T15:48:58.974Z,1030.1
2023-01-25T15:54:27.530Z,1030.1
2023-01-25T16:00:01.901Z,1030.1
2023-01-25T16:05:18.694Z,1030
2023-01-25T16:11:05.583Z,1030
2023-01-25T16:16:26.240Z,1029.9
2023-01-25T16:22:03.253Z,1029.9
2023-01-25T16:27:55.448Z,1029.9
2023-01-25T16:33:15.799Z,1029.9
2023-01-25T16:39:06.666Z,1029.9
2023-01-25T16:44:19.536Z,1029.8
2023-01-25T16:50:09.099Z,1029.8
2023-01-25T16:55:21.251Z,1029.8
2023-01-25T17:00:57.688Z,1029.7
2023-01-25T17:06:33.927Z,1029.7
2023-01-25T17:12:09.333Z,1029.6
2023-01-25T17:17:45.654Z,1029.5
2023-01-25T17:23:14.620Z,1029.5
2023-01-25T17:28:51.145Z,1029.5
2023-01-25T17:34:28.466Z,1029.4
2023-01-25T17:40:04.311Z,1029.4
2023-01-25T17:45:31.262Z,1029.4
2023-01-25T17:51:18.571Z,1029.3
2023-01-25T17:56:45.855Z,1029.2
2023-01-25T18:02:06.788Z,1029.3
2023-01-25T18:07:57.234Z,1029.2
2023-01-25T18:13:26.880Z,1029.2
2023-01-25T18:18:45.642Z,1029.2
2023-01-25T18:24:18.347Z,1029.1
2023-01-25T18:30:02.216Z,1029.1
2023-01-25T18:35:22.350Z,1029
2023-01-25T18:40:56.520Z,1029
2023-01-25T18:46:35.305Z,1029
2023-01-25T18:52:18.647Z,1029
2023-01-25T18:57:42.589Z,1028.9
2023-01-25T19:03:15.507Z,1028.9
2023-01-25T19:08:42.868Z,1028.8
2023-01-25T19:14:15.781Z,1028.8
2023-01-25T19:20:02.170Z,1028.7
2023-01-25T19:25:43.159Z,1028.8
2023-01-25T19:30:56.237Z,1028.7
2023-01-25T19:36:52.413Z,1028.7
2023-01-25T19:42:25.214Z,1028.7
2023-01-25T19:47:45.795Z,1028.6
2023-01-25T19:53:14.439Z,1028.6
2023-01-25T19:58:53.221Z,1028.7
2023-01-25T20:04:31.756Z,1028.5
2023-01-25T20:09:47.560Z,1028.5
2023-01-25T20:15:43.875Z,1028.5
2023-01-25T20:21:08.443Z,1028.5
2023-01-25T20:26:50.943Z,1028.4
2023-01-25T20:32:17.044Z,1028.5
2023-01-25T20:37:56.068Z,1028.3
2023-01-25T20:43:18.350Z,1028.3
2023-01-25T20:48:41.723Z,1028.3
2023-01-25T20:54:08.171Z,1028.3
2023-01-25T21:00:04.491Z,1028.3
2023-01-25T21:05:36.894Z,1028.2
2023-01-25T21:11:03.720Z,1028.1
2023-01-25T21:16:29.506Z,1028.1
2023-01-25T21:22:18.601Z,1028
2023-01-25T21:27:26.514Z,1028
2023-01-25T21:32:59.341Z,1028
2023-01-25T21:38:32.382Z,1028
2023-01-25T21:44:07.643Z,1027.9
2023-01-25T21:49:38.047Z,1027.9
2023-01-25T21:55:25.066Z,1027.8
2023-01-25T22:00:56.164Z,1027.9
2023-01-25T22:06:40.189Z,1027.9
2023-01-25T22:12:10.026Z,1027.9
2023-01-25T22:17:43.523Z,1027.9
2023-01-25T22:23:01.899Z,1027.9
2023-01-25T22:28:30.281Z,1027.8
2023-01-25T22:34:15.340Z,1027.8
2023-01-25T22:40:01.303Z,1027.7
2023-01-25T22:45:30.767Z,1027.6
2023-01-25T22:51:08.131Z,1027.5
2023-01-25T22:56:16.106Z,1027.4
2023-01-25T23:01:47.880Z,1027.4
2023-01-25T23:07:19.278Z,1027.2
2023-01-25T23:12:53.199Z,1027.1
2023-01-25T23:18:32.792Z,1027.2
2023-01-25T23:24:02.238Z,1027
2023-01-25T23:29:41.367Z,1027
2023-01-25T23:35:21.313Z,1027
2023-01-25T23:40:41.556Z,1026.9
2023-01-25T23:46:12.619Z,1026.8
2023-01-25T23:51:52.702Z,1026.7
2023-01-25T23:57:42.150Z,1026.7
